Time;durP1;ratioP1;P1;durP2;ratioP2;P2;SDS_P1;SDS_P2;PMS_P1;PMS_P2;Temp;Humidity;BMP_temperature;BMP_pressure;BME280_temperature;BME280_humidity;BME280_pressure;Samples;Min_cycle;Max_cycle;Signal;HPM_P1;HPM_P2
2022/03/19 00:00:46;;;;;;;25.92;13.43;;;;;;;5.97;100.00;104203.88;5093223;28;20059;-69
2022/03/19 00:03:12;;;;;;;26.23;13.57;;;;;;;5.94;100.00;104204.56;5092918;28;20409;-69
2022/03/19 00:05:38;;;;;;;26.20;13.70;;;;;;;5.87;100.00;104208.44;5092748;28;20056;-68
2022/03/19 00:08:04;;;;;;;26.48;13.88;;;;;;;5.89;100.00;104212.09;5092329;28;20032;-67
2022/03/19 00:10:29;;;;;;;26.35;13.30;;;;;;;5.86;100.00;104216.19;5092772;28;20063;-69
2022/03/19 00:12:55;;;;;;;26.60;14.02;;;;;;;5.79;100.00;104209.53;5092736;28;20028;-69
2022/03/19 00:15:20;;;;;;;27.17;14.65;;;;;;;5.79;100.00;104206.91;5092985;28;20039;-69
2022/03/19 00:17:46;;;;;;;26.92;14.27;;;;;;;5.69;100.00;104212.25;5092610;28;20020;-69
2022/03/19 00:20:12;;;;;;;26.77;14.32;;;;;;;5.64;100.00;104211.91;5092583;28;20020;-67
2022/03/19 00:22:38;;;;;;;26.42;14.43;;;;;;;5.64;100.00;104208.38;5093036;28;20020;-68
2022/03/19 00:25:04;;;;;;;26.95;14.82;;;;;;;5.57;100.00;104207.88;5092602;28;20467;-69
2022/03/19 00:27:29;;;;;;;26.50;14.82;;;;;;;5.51;100.00;104207.38;5092857;28;20032;-68
2022/03/19 00:29:55;;;;;;;26.70;15.10;;;;;;;5.46;100.00;104206.13;5092524;28;20374;-69
2022/03/19 00:32:21;;;;;;;26.25;14.77;;;;;;;5.48;100.00;104207.16;5084339;28;20028;-68
2022/03/19 00:34:46;;;;;;;27.30;15.73;;;;;;;5.45;100.00;104196.41;5092691;28;20016;-68
2022/03/19 00:37:12;;;;;;;28.00;15.43;;;;;;;5.45;100.00;104212.16;5092519;28;20089;-68
2022/03/19 00:39:37;;;;;;;26.98;15.27;;;;;;;5.31;100.00;104197.03;5092221;28;20048;-68
2022/03/19 00:42:03;;;;;;;29.67;15.88;;;;;;;5.26;100.00;104196.66;5092484;28;20024;-68
2022/03/19 00:44:28;;;;;;;26.90;15.75;;;;;;;5.24;100.00;104196.56;5092385;28;20040;-69
2022/03/19 00:46:54;;;;;;;27.17;15.85;;;;;;;5.21;100.00;104196.31;5092409;28;20020;-68
2022/03/19 00:49:19;;;;;;;29.33;15.95;;;;;;;5.14;100.00;104194.00;5092477;28;20039;-68
2022/03/19 00:51:44;;;;;;;28.35;16.20;;;;;;;5.16;100.00;104200.25;5092303;28;20029;-68
2022/03/19 00:54:12;;;;;;;28.40;16.48;;;;;;;5.10;100.00;104197.16;5092344;28;20467;-68
2022/03/19 00:56:38;;;;;;;29.50;16.90;;;;;;;5.10;100.00;104198.84;5092430;28;20032;-70
2022/03/19 00:59:03;;;;;;;28.70;16.77;;;;;;;5.06;100.00;104195.06;5092344;28;20115;-70
2022/03/19 01:01:28;;;;;;;28.02;17.08;;;;;;;5.06;100.00;104190.72;5092284;28;20535;-70
2022/03/19 01:03:54;;;;;;;26.60;17.05;;;;;;;4.99;100.00;104190.13;5092634;28;20024;-68
2022/03/19 01:06:20;;;;;;;28.70;17.00;;;;;;;4.88;100.00;104192.78;5092247;28;20060;-68
2022/03/19 01:08:46;;;;;;;30.10;17.17;;;;;;;4.88;100.00;104195.41;5092397;28;20031;-68
2022/03/19 01:11:11;;;;;;;29.65;17.98;;;;;;;4.92;100.00;104195.66;5092342;28;20020;-70
2022/03/19 01:13:37;;;;;;;28.90;18.27;;;;;;;4.85;100.00;104187.31;5091876;28;20028;-70
2022/03/19 01:16:02;;;;;;;27.75;17.60;;;;;;;4.84;100.00;104188.09;5092674;28;20023;-68
2022/03/19 01:18:29;;;;;;;30.52;18.33;;;;;;;4.92;100.00;104185.19;5092096;28;20028;-68
2022/03/19 01:20:54;;;;;;;30.85;19.13;;;;;;;4.92;100.00;104180.84;5095040;28;20032;-68
2022/03/19 01:23:20;;;;;;;30.42;19.33;;;;;;;4.88;100.00;104190.16;5096393;28;20054;-70
2022/03/19 01:25:45;;;;;;;31.20;19.33;;;;;;;4.88;100.00;104191.91;5095802;28;20511;-70
2022/03/19 01:28:10;;;;;;;30.17;19.08;;;;;;;4.83;100.00;104186.25;5095955;28;20474;-68
2022/03/19 01:30:36;;;;;;;30.83;19.90;;;;;;;4.82;100.00;104178.25;5095755;28;20420;-68
2022/03/19 01:33:01;;;;;;;30.92;19.77;;;;;;;4.79;100.00;104184.19;5095863;28;20016;-68
2022/03/19 01:35:26;;;;;;;30.25;20.60;;;;;;;4.79;100.00;104183.25;5095579;28;20078;-68
2022/03/19 01:37:52;;;;;;;30.33;20.20;;;;;;;4.77;100.00;104184.84;5095686;28;20077;-70
2022/03/19 01:40:18;;;;;;;31.45;20.92;;;;;;;4.67;100.00;104183.19;5095377;28;20094;-69
2022/03/19 01:42:46;;;;;;;30.77;21.40;;;;;;;4.75;100.00;104176.88;5095471;28;20047;-67
2022/03/19 01:45:18;;;;;;;32.38;21.85;;;;;;;4.67;100.00;104193.66;5095402;28;20024;-67
2022/03/19 01:47:44;;;;;;;31.87;21.87;;;;;;;4.63;100.00;104184.66;5095324;28;20024;-68
2022/03/19 01:50:11;;;;;;;31.75;22.30;;;;;;;4.61;100.00;104180.97;5095397;28;20034;-67
2022/03/19 01:52:36;;;;;;;32.40;23.25;;;;;;;4.58;100.00;104174.56;5094274;28;20081;-70
2022/03/19 01:55:04;;;;;;;32.88;23.25;;;;;;;4.58;100.00;104178.09;5095530;28;20024;-68
2022/03/19 01:57:34;;;;;;;35.03;25.02;;;;;;;4.56;100.00;104170.91;5095006;28;20028;-68
2022/03/19 02:00:00;;;;;;;33.97;24.58;;;;;;;4.58;100.00;104166.72;5095234;28;20030;-67
2022/03/19 02:02:27;;;;;;;33.63;25.33;;;;;;;4.58;100.00;104175.47;5095135;28;20028;-68
2022/03/19 02:04:53;;;;;;;36.30;25.27;;;;;;;4.58;100.00;104166.72;5086981;28;20051;-67
2022/03/19 02:07:18;;;;;;;34.33;25.10;;;;;;;4.56;100.00;104166.59;5095248;28;20395;-69
2022/03/19 02:09:44;;;;;;;35.15;25.88;;;;;;;4.52;100.00;104161.88;5092726;28;20032;-70
2022/03/19 02:12:10;;;;;;;36.17;25.73;;;;;;;4.49;100.00;104164.25;5095159;28;20031;-68
2022/03/19 02:14:37;;;;;;;34.28;24.85;;;;;;;4.39;100.00;104162.56;5095080;28;20032;-68
2022/03/19 02:17:04;;;;;;;35.72;26.02;;;;;;;4.35;100.00;104150.94;5094817;28;20023;-68
2022/03/19 02:19:30;;;;;;;34.78;25.45;;;;;;;4.31;100.00;104147.91;5094588;28;20032;-68
2022/03/19 02:21:56;;;;;;;36.22;26.15;;;;;;;4.35;100.00;104152.63;5095026;28;20016;-70
2022/03/19 02:27:05;;;;;;;37.65;26.77;;;;;;;4.34;100.00;104142.97;5089927;28;20043;-69
2022/03/19 02:29:31;;;;;;;38.10;27.23;;;;;;;4.35;100.00;104140.47;5094678;28;20028;-69
2022/03/19 02:32:03;;;;;;;38.90;28.13;;;;;;;4.29;100.00;104136.41;5094030;28;20105;-69
2022/03/19 02:34:28;;;;;;;37.65;27.52;;;;;;;4.28;100.00;104131.94;5087964;28;20020;-70
2022/03/19 02:36:54;;;;;;;38.40;27.13;;;;;;;4.30;100.00;104133.00;5094702;28;20020;-70
2022/03/19 02:39:24;;;;;;;37.92;27.00;;;;;;;4.25;100.00;104124.78;5092225;28;20059;-70
2022/03/19 02:41:51;;;;;;;37.97;27.52;;;;;;;4.27;100.00;104122.28;5094203;28;20016;-70
2022/03/19 02:44:19;;;;;;;36.65;26.80;;;;;;;4.26;100.00;104117.81;5094298;28;20112;-70
2022/03/19 02:46:50;;;;;;;37.00;26.88;;;;;;;4.29;100.00;104118.97;5094353;28;20024;-69
2022/03/19 02:49:17;;;;;;;38.50;26.85;;;;;;;4.35;100.00;104116.88;5093999;28;20032;-68
2022/03/19 02:51:44;;;;;;;38.70;26.77;;;;;;;4.32;100.00;104113.09;5094286;28;20016;-68
2022/03/19 02:54:11;;;;;;;37.33;26.40;;;;;;;4.27;100.00;104111.81;5094109;28;20031;-69
2022/03/19 02:56:39;;;;;;;37.13;27.67;;;;;;;4.28;100.00;104111.94;5094372;28;20024;-68
2022/03/19 02:59:19;;;;;;;36.10;26.63;;;;;;;4.24;100.00;104112.47;5093836;28;20031;-68
2022/03/19 03:01:45;;;;;;;36.80;26.75;;;;;;;4.19;100.00;104116.38;5094009;28;20032;-68
2022/03/19 03:04:11;;;;;;;38.85;27.88;;;;;;;4.24;100.00;104116.75;5094001;28;20031;-68
2022/03/19 03:06:41;;;;;;;36.80;27.35;;;;;;;4.25;100.00;104108.13;5091836;28;20127;-68
2022/03/19 03:09:07;;;;;;;36.45;26.42;;;;;;;4.27;100.00;104120.56;5092300;28;20028;-67
2022/03/19 03:11:33;;;;;;;37.53;26.77;;;;;;;4.21;100.00;104111.28;5092951;28;20098;-68
2022/03/19 03:13:59;;;;;;;38.13;27.13;;;;;;;4.23;100.00;104113.25;5093634;28;20030;-68
2022/03/19 03:16:28;;;;;;;36.45;25.98;;;;;;;4.26;100.00;104115.19;5093689;28;20024;-68
2022/03/19 03:18:56;;;;;;;37.75;26.25;;;;;;;4.22;100.00;104118.34;5085998;28;20555;-68
2022/03/19 03:21:21;;;;;;;36.72;25.60;;;;;;;4.35;100.00;104110.72;5093688;28;20127;-68
2022/03/19 03:23:47;;;;;;;37.83;26.85;;;;;;;4.29;100.00;104105.88;5093411;28;20031;-69
2022/03/19 03:26:12;;;;;;;35.13;26.17;;;;;;;4.25;100.00;104113.38;5093853;28;20020;-68
2022/03/19 03:28:37;;;;;;;36.92;25.33;;;;;;;4.30;100.00;104109.44;5093687;28;20482;-69
2022/03/19 03:31:03;;;;;;;37.00;26.25;;;;;;;4.30;100.00;104107.72;5093491;28;20378;-68
2022/03/19 03:33:28;;;;;;;36.35;25.45;;;;;;;4.23;100.00;104109.72;5093606;28;20468;-68
2022/03/19 03:35:54;;;;;;;35.80;25.35;;;;;;;4.23;100.00;104121.09;5093306;28;20521;-69
2022/03/19 03:38:19;;;;;;;37.95;26.15;;;;;;;4.15;100.00;104115.25;5093103;28;20387;-68
2022/03/19 03:40:44;;;;;;;36.13;25.75;;;;;;;4.14;100.00;104121.25;5093109;28;20503;-68
2022/03/19 03:43:10;;;;;;;37.20;26.13;;;;;;;4.08;100.00;104115.50;5092863;28;20060;-69
2022/03/19 03:45:35;;;;;;;37.58;26.00;;;;;;;3.99;100.00;104115.66;5093360;28;20028;-68
2022/03/19 03:48:01;;;;;;;36.40;25.50;;;;;;;3.89;100.00;104117.38;5091484;28;20043;-68
2022/03/19 03:50:27;;;;;;;37.42;25.80;;;;;;;3.85;100.00;104113.59;5093035;28;20028;-68
2022/03/19 03:52:53;;;;;;;39.83;25.98;;;;;;;3.82;100.00;104110.72;5093071;28;20031;-68
2022/03/19 03:55:19;;;;;;;35.83;25.45;;;;;;;3.83;100.00;104110.84;5093069;28;20036;-68
2022/03/19 03:57:44;;;;;;;39.85;25.48;;;;;;;3.80;100.00;104104.41;5093001;28;20016;-69
2022/03/19 04:00:10;;;;;;;38.10;25.73;;;;;;;3.77;100.00;104110.34;5093060;28;20443;-68
2022/03/19 04:02:38;;;;;;;36.40;25.50;;;;;;;3.76;100.00;104111.13;5093163;28;20024;-68
2022/03/19 04:05:06;;;;;;;36.47;25.13;;;;;;;3.70;100.00;104100.13;5092934;28;20443;-67
2022/03/19 04:07:32;;;;;;;39.58;25.65;;;;;;;3.65;100.00;104102.34;5092804;28;20382;-68
2022/03/19 04:09:57;;;;;;;39.80;25.40;;;;;;;3.69;100.00;104098.28;5092896;28;20032;-67
2022/03/19 04:12:22;;;;;;;37.80;26.05;;;;;;;3.63;100.00;104097.78;5092691;28;20034;-67
2022/03/19 04:14:52;;;;;;;36.88;25.15;;;;;;;3.67;100.00;104097.25;5092908;28;20066;-67
2022/03/19 04:17:18;;;;;;;40.20;25.63;;;;;;;3.67;100.00;104094.66;5093161;28;20406;-67
2022/03/19 04:19:43;;;;;;;36.50;25.17;;;;;;;3.64;100.00;104094.34;5090618;28;20046;-67
2022/03/19 04:22:09;;;;;;;36.72;25.10;;;;;;;3.66;100.00;104092.81;5092772;28;20039;-66
2022/03/19 04:24:34;;;;;;;36.05;25.00;;;;;;;3.60;100.00;104097.53;5092521;28;20026;-66
2022/03/19 04:27:00;;;;;;;37.97;25.13;;;;;;;3.61;100.00;104099.34;5092536;28;20024;-67
2022/03/19 04:29:26;;;;;;;38.25;24.88;;;;;;;3.51;100.00;104096.72;5093001;28;20024;-67
2022/03/19 04:31:51;;;;;;;37.10;25.75;;;;;;;3.47;100.00;104095.56;5092834;28;20467;-66
2022/03/19 04:34:17;;;;;;;38.15;25.70;;;;;;;3.43;100.00;104090.84;5092601;28;20089;-67
2022/03/19 04:36:42;;;;;;;39.72;25.52;;;;;;;3.37;100.00;104093.84;5093017;28;20107;-67
2022/03/19 04:39:08;;;;;;;39.20;25.55;;;;;;;3.35;100.00;104098.06;5092400;28;20045;-67
2022/03/19 04:41:36;;;;;;;36.38;25.50;;;;;;;3.29;100.00;104094.88;5092418;28;20020;-67
2022/03/19 04:44:01;;;;;;;39.42;25.58;;;;;;;3.28;100.00;104087.84;5092755;28;20028;-66
2022/03/19 04:46:27;;;;;;;37.92;25.00;;;;;;;3.23;100.00;104086.50;5092741;28;20023;-67
2022/03/19 04:48:53;;;;;;;37.67;26.20;;;;;;;3.20;100.00;104086.25;5092302;28;20112;-68
2022/03/19 04:51:20;;;;;;;39.25;25.45;;;;;;;3.13;100.00;104085.72;5092578;28;20070;-68
2022/03/19 04:53:50;;;;;;;39.58;26.15;;;;;;;3.07;100.00;104077.38;5092345;28;20020;-68
2022/03/19 04:56:17;;;;;;;38.15;25.27;;;;;;;3.04;100.00;104082.31;5096229;28;20028;-68
2022/03/19 04:58:42;;;;;;;36.53;25.92;;;;;;;3.02;100.00;104082.97;5095133;28;20060;-69
2022/03/19 05:01:08;;;;;;;37.97;26.48;;;;;;;3.00;100.00;104084.53;5096305;28;20064;-70
2022/03/19 05:03:33;;;;;;;38.92;26.52;;;;;;;2.93;100.00;104088.31;5096239;28;20050;-70
2022/03/19 05:05:58;;;;;;;39.30;26.23;;;;;;;2.85;100.00;104086.72;5096565;28;20028;-68
2022/03/19 05:08:24;;;;;;;38.78;27.00;;;;;;;2.80;100.00;104086.31;5087944;28;20024;-69
2022/03/19 05:13:33;;;;;;;39.97;27.05;;;;;;;2.73;100.00;104090.09;5090491;28;20085;-69
2022/03/19 05:15:58;;;;;;;39.92;27.83;;;;;;;2.73;100.00;104090.09;5096389;28;20024;-70
2022/03/19 05:18:23;;;;;;;40.45;28.52;;;;;;;2.70;100.00;104095.03;5095838;28;20394;-69
2022/03/19 05:20:49;;;;;;;40.58;28.27;;;;;;;2.66;100.00;104094.63;5096028;28;20040;-69
2022/03/19 05:23:14;;;;;;;42.53;28.38;;;;;;;2.62;100.00;104098.66;5095824;28;20020;-69
2022/03/19 05:25:39;;;;;;;41.40;27.83;;;;;;;2.64;100.00;104096.22;5095911;28;20032;-68
2022/03/19 05:28:05;;;;;;;40.97;27.80;;;;;;;2.63;100.00;104091.75;5096106;28;20020;-68
2022/03/19 05:30:31;;;;;;;39.58;28.45;;;;;;;2.58;100.00;104104.41;5095993;28;20020;-68
2022/03/19 05:32:57;;;;;;;40.05;28.40;;;;;;;2.56;100.00;104096.44;5095679;28;20387;-68
2022/03/19 05:35:22;;;;;;;41.17;28.02;;;;;;;2.51;100.00;104097.72;5096069;28;20020;-68
2022/03/19 05:37:48;;;;;;;40.67;28.55;;;;;;;2.52;100.00;104096.94;5095490;28;20025;-68
2022/03/19 05:40:14;;;;;;;42.70;29.27;;;;;;;2.55;100.00;104097.22;5095366;28;20055;-68
2022/03/19 05:42:40;;;;;;;41.47;28.58;;;;;;;2.58;100.00;104096.59;5095749;28;20031;-70
2022/03/19 05:45:05;;;;;;;41.95;29.35;;;;;;;2.57;100.00;104099.97;5093377;28;20040;-68
2022/03/19 05:47:31;;;;;;;40.58;28.20;;;;;;;2.65;100.00;104100.63;5095597;28;20035;-68
2022/03/19 05:49:56;;;;;;;40.05;29.40;;;;;;;2.66;100.00;104100.78;5094297;28;20093;-68
2022/03/19 05:52:21;;;;;;;43.45;29.60;;;;;;;2.63;100.00;104096.97;5095227;28;20424;-68
2022/03/19 05:54:47;;;;;;;42.75;29.73;;;;;;;2.61;100.00;104100.38;5095208;28;20024;-69
2022/03/19 05:57:12;;;;;;;40.97;29.65;;;;;;;2.67;100.00;104096.47;5095223;28;20401;-68
2022/03/19 05:59:38;;;;;;;45.38;30.08;;;;;;;2.69;100.00;104102.75;5095074;28;20031;-67
2022/03/19 06:02:05;;;;;;;43.35;30.55;;;;;;;2.75;100.00;104103.28;5095264;28;20024;-67
2022/03/19 06:04:31;;;;;;;46.28;31.17;;;;;;;2.81;100.00;104095.06;5095551;28;20024;-67
2022/03/19 06:06:56;;;;;;;42.38;30.17;;;;;;;2.83;100.00;104097.03;5095021;28;20360;-67
2022/03/19 06:09:22;;;;;;;41.35;29.20;;;;;;;2.90;100.00;104102.03;5095105;28;20024;-67
2022/03/19 06:11:47;;;;;;;41.22;29.05;;;;;;;2.99;100.00;104101.91;5095012;28;20056;-68
2022/03/19 06:14:13;;;;;;;40.55;29.27;;;;;;;3.11;100.00;104102.97;5094757;28;20020;-67
2022/03/19 06:16:38;;;;;;;43.17;29.85;;;;;;;3.19;100.00;104102.72;5095035;28;20028;-68
2022/03/19 06:19:03;;;;;;;41.58;27.60;;;;;;;3.27;100.00;104106.94;5094811;28;20028;-68
2022/03/19 06:21:29;;;;;;;42.10;29.15;;;;;;;3.31;100.00;104104.69;5094987;28;20035;-67
2022/03/19 06:23:55;;;;;;;41.45;29.17;;;;;;;3.38;100.00;104098.31;5087030;28;20410;-67
2022/03/19 06:26:23;;;;;;;40.80;28.98;;;;;;;3.44;100.00;104109.28;5094550;28;20076;-68
2022/03/19 06:28:48;;;;;;;40.47;28.13;;;;;;;3.50;100.00;104106.28;5094447;28;20467;-68
2022/03/19 06:31:14;;;;;;;39.70;28.17;;;;;;;3.57;100.00;104105.09;5094661;28;20031;-67
2022/03/19 06:33:40;;;;;;;39.75;28.10;;;;;;;3.62;100.00;104104.69;5094331;28;20020;-68
2022/03/19 06:38:50;;;;;;;38.88;27.02;;;;;;;3.71;100.00;104111.50;5094303;28;20050;-68
2022/03/19 06:41:15;;;;;;;39.25;26.52;;;;;;;3.78;100.00;104111.25;5094748;28;20127;-67
2022/03/19 06:43:42;;;;;;;42.03;27.60;;;;;;;3.82;100.00;104106.38;5093114;28;20118;-68
2022/03/19 06:46:08;;;;;;;40.45;27.65;;;;;;;3.82;100.00;104108.09;5094466;28;20082;-68
2022/03/19 06:48:33;;;;;;;42.47;27.50;;;;;;;3.85;100.00;104116.19;5094451;28;20028;-68
2022/03/19 06:50:58;;;;;;;38.15;26.50;;;;;;;3.91;100.00;104116.72;5094618;28;20110;-68
2022/03/19 06:53:24;;;;;;;40.17;27.38;;;;;;;3.96;100.00;104111.84;5094288;28;20023;-68
2022/03/19 06:55:51;;;;;;;41.17;26.88;;;;;;;4.04;100.00;104123.00;5093872;28;20428;-68
2022/03/19 06:58:16;;;;;;;40.25;26.50;;;;;;;4.08;100.00;104119.81;5093938;28;20036;-68
2022/03/19 07:00:42;;;;;;;41.25;27.20;;;;;;;4.12;100.00;104117.59;5094419;28;20031;-68
2022/03/19 07:03:07;;;;;;;39.03;26.02;;;;;;;4.18;100.00;104112.88;5093969;28;20016;-68
2022/03/19 07:05:33;;;;;;;43.15;26.95;;;;;;;4.27;100.00;104119.66;5093809;28;20031;-68
2022/03/19 07:08:00;;;;;;;39.08;26.55;;;;;;;4.33;100.00;104117.53;5094141;28;20028;-68
2022/03/19 07:10:26;;;;;;;39.03;25.80;;;;;;;4.42;100.00;104113.03;5085460;28;20471;-68
2022/03/19 07:12:54;;;;;;;37.97;25.65;;;;;;;4.59;100.00;104116.09;5093850;28;20036;-68
2022/03/19 07:15:24;;;;;;;36.08;24.23;;;;;;;4.63;100.00;104113.88;5093894;28;20028;-68
2022/03/19 07:17:50;;;;;;;39.03;25.23;;;;;;;4.72;100.00;104113.72;5093384;28;20031;-68
2022/03/19 07:20:15;;;;;;;38.03;24.85;;;;;;;4.81;100.00;104108.28;5093611;28;20031;-68
2022/03/19 07:22:55;;;;;;;37.50;25.05;;;;;;;4.93;100.00;104113.59;5092525;28;20032;-67
2022/03/19 07:25:26;;;;;;;35.40;24.08;;;;;;;5.02;100.00;104109.06;5093502;28;20028;-67
2022/03/19 07:27:54;;;;;;;36.15;25.05;;;;;;;5.10;100.00;104110.59;5093357;28;20463;-67
2022/03/19 07:30:20;;;;;;;36.25;23.75;;;;;;;5.24;100.00;104102.13;5093369;28;20028;-67
2022/03/19 07:32:46;;;;;;;36.60;23.85;;;;;;;5.35;100.00;104100.31;5093509;28;20035;-68
2022/03/19 07:35:13;;;;;;;35.08;22.45;;;;;;;5.50;100.00;104099.69;5093347;28;20030;-68
2022/03/19 07:37:40;;;;;;;37.88;22.77;;;;;;;5.67;100.00;104103.59;5093245;28;20490;-68
2022/03/19 07:40:07;;;;;;;34.47;21.75;;;;;;;5.85;100.00;104101.44;5093094;28;20055;-68
2022/03/19 07:42:34;;;;;;;34.30;21.08;;;;;;;6.01;100.00;104106.19;5093303;28;20026;-68
2022/03/19 07:45:00;;;;;;;33.78;21.30;;;;;;;6.02;100.00;104092.25;5093455;28;20116;-69
2022/03/19 07:47:25;;;;;;;31.98;19.48;;;;;;;6.15;100.00;104099.34;5093460;28;20115;-69
2022/03/19 07:49:51;;;;;;;33.38;20.88;;;;;;;6.30;100.00;104099.56;5093089;28;20035;-67
2022/03/19 07:52:16;;;;;;;32.33;19.10;;;;;;;6.36;100.00;104094.75;5093266;28;20111;-68
2022/03/19 07:54:42;;;;;;;32.78;20.10;;;;;;;6.48;100.00;104092.09;5093682;28;20024;-68
2022/03/19 07:57:11;;;;;;;34.00;20.15;;;;;;;6.62;100.00;104099.28;5093234;28;20107;-68
2022/03/19 07:59:37;;;;;;;32.08;19.55;;;;;;;6.72;100.00;104096.50;5092949;28;20082;-68
2022/03/19 08:02:03;;;;;;;31.80;18.98;;;;;;;6.80;100.00;104099.69;5093093;28;20028;-68
2022/03/19 08:04:29;;;;;;;31.90;18.55;;;;;;;6.85;100.00;104093.03;5092918;28;20570;-68
2022/03/19 08:06:55;;;;;;;30.25;17.90;;;;;;;7.01;100.00;104092.41;5092859;28;20066;-69
2022/03/19 08:09:23;;;;;;;31.33;18.08;;;;;;;7.12;100.00;104094.09;5092796;28;20066;-69
2022/03/19 08:11:49;;;;;;;34.78;19.00;;;;;;;7.26;100.00;104087.16;5092918;28;20099;-69
2022/03/19 08:14:16;;;;;;;32.38;17.40;;;;;;;7.36;100.00;104093.06;5092629;28;20024;-69
2022/03/19 08:16:42;;;;;;;31.00;19.02;;;;;;;7.47;100.00;104092.06;5092911;28;20028;-69
2022/03/19 08:19:09;;;;;;;29.92;17.90;;;;;;;7.59;100.00;104087.66;5092581;28;20032;-70
2022/03/19 08:21:34;;;;;;;28.48;16.35;;;;;;;7.76;100.00;104093.16;5092602;28;20467;-70
2022/03/19 08:23:59;;;;;;;29.88;15.63;;;;;;;7.97;100.00;104091.06;5092700;28;20024;-70
2022/03/19 08:26:25;;;;;;;28.25;14.80;;;;;;;8.11;100.00;104094.59;5091359;28;20020;-70
2022/03/19 08:28:51;;;;;;;28.73;14.75;;;;;;;8.25;100.00;104088.53;5092742;28;20078;-70
2022/03/19 08:31:16;;;;;;;24.98;12.80;;;;;;;8.37;100.00;104094.59;5097000;28;20046;-70
2022/03/19 08:33:41;;;;;;;28.25;15.30;;;;;;;8.59;100.00;104096.03;5096842;28;20051;-70
2022/03/19 08:36:07;;;;;;;27.63;15.02;;;;;;;8.76;100.00;104088.28;5096968;28;20024;-70
2022/03/19 08:41:16;;;;;;;29.50;14.07;;;;;;;8.96;100.00;104098.34;5096792;28;20075;-70
2022/03/19 08:43:44;;;;;;;26.15;13.80;;;;;;;9.06;100.00;104092.84;5096791;28;20055;-70
2022/03/19 08:46:09;;;;;;;26.67;14.20;;;;;;;9.05;100.00;104088.38;5096776;28;20115;-70
2022/03/19 08:48:35;;;;;;;31.20;14.52;;;;;;;9.10;100.00;104091.31;5096558;28;20099;-70
2022/03/19 08:51:39;;;;;;;27.38;13.85;;;;;;;9.07;100.00;104083.19;5096484;28;20500;-70
2022/03/19 08:53:45;;;;;;;25.60;13.02;;;;;;;9.36;100.00;104085.00;5093427;28;20020;-69
2022/03/19 08:56:10;;;;;;;27.45;13.63;;;;;;;9.83;100.00;104087.72;5096515;28;20107;-70
2022/03/19 08:58:37;;;;;;;27.52;12.93;;;;;;;10.13;100.00;104091.25;5096234;28;20027;-70
2022/03/19 09:01:03;;;;;;;25.77;12.57;;;;;;;10.31;100.00;104080.84;5096325;28;20031;-71
2022/03/19 09:03:28;;;;;;;26.48;12.00;;;;;;;10.50;100.00;104087.19;5096433;28;20020;-70
2022/03/19 09:05:53;;;;;;;25.75;11.90;;;;;;;10.44;100.00;104083.38;5096453;28;20028;-69
2022/03/19 09:08:19;;;;;;;26.05;12.48;;;;;;;10.61;100.00;104073.72;5096259;28;20367;-71
2022/03/19 09:10:44;;;;;;;26.48;12.23;;;;;;;10.73;100.00;104077.88;5096340;28;20036;-71
2022/03/19 09:13:10;;;;;;;27.15;12.32;;;;;;;10.88;100.00;104077.81;5094612;28;20080;-71
2022/03/19 09:15:35;;;;;;;25.38;11.85;;;;;;;11.34;97.71;104075.91;5096114;28;20066;-71
2022/03/19 09:18:00;;;;;;;24.77;11.75;;;;;;;11.69;93.87;104068.88;5096058;28;20054;-70
2022/03/19 09:20:26;;;;;;;25.23;11.05;;;;;;;11.90;91.61;104084.03;5095800;28;20036;-70
2022/03/19 09:22:51;;;;;;;24.08;11.23;;;;;;;12.32;89.85;104072.84;5096186;28;20031;-70
2022/03/19 09:25:16;;;;;;;25.23;11.27;;;;;;;12.73;87.81;104077.47;5094649;28;20052;-71
2022/03/19 09:27:42;;;;;;;23.98;10.55;;;;;;;13.03;83.46;104061.16;5095899;28;20054;-71
2022/03/19 09:30:08;;;;;;;23.80;10.55;;;;;;;13.17;80.04;104059.09;5095910;28;20056;-70
2022/03/19 09:32:35;;;;;;;23.30;10.05;;;;;;;13.14;80.10;104064.28;5095581;28;20077;-70
2022/03/19 09:35:00;;;;;;;23.50;9.77;;;;;;;13.35;79.70;104064.34;5095794;28;20090;-71
2022/03/19 09:37:26;;;;;;;23.48;9.57;;;;;;;13.64;75.84;104058.47;5095782;28;20099;-71
2022/03/19 09:39:52;;;;;;;25.08;9.98;;;;;;;14.06;75.86;104061.09;5094968;28;20056;-71
2022/03/19 09:42:18;;;;;;;22.58;9.65;;;;;;;14.35;72.11;104056.06;5094060;28;20024;-70
2022/03/19 09:44:43;;;;;;;21.92;9.30;;;;;;;14.56;70.53;104054.25;5095454;28;20028;-71
2022/03/19 09:47:09;;;;;;;23.73;9.43;;;;;;;14.69;69.40;104047.63;5095421;28;20067;-70
2022/03/19 09:49:34;;;;;;;22.80;9.05;;;;;;;15.17;65.42;104054.72;5095424;28;20107;-71
2022/03/19 09:52:03;;;;;;;23.08;9.10;;;;;;;15.65;64.62;104053.72;5095758;28;20023;-71
2022/03/19 09:54:28;;;;;;;26.67;10.27;;;;;;;15.68;61.76;104046.75;5087250;28;20031;-71
2022/03/19 09:56:54;;;;;;;23.20;8.50;;;;;;;15.84;60.41;104034.88;5095417;28;20031;-71
2022/03/19 09:59:24;;;;;;;20.40;7.50;;;;;;;15.66;55.87;104036.88;5095328;28;20064;-67
2022/03/19 10:01:51;;;;;;;22.98;8.00;;;;;;;15.61;54.89;104041.16;5095043;28;20107;-68
2022/03/19 10:04:20;;;;;;;23.50;8.02;;;;;;;15.80;51.78;104032.97;5095107;28;20050;-69
2022/03/19 10:09:42;;;;;;;;;;;;;;;17.01;48.45;104017.94;5090415;28;20081;-69
2022/03/19 10:12:13;;;;;;;22.10;8.20;;;;;;;17.12;44.56;104028.91;5095147;28;19908;-69
2022/03/19 10:14:39;;;;;;;21.38;7.80;;;;;;;17.76;41.73;104019.88;5094895;28;20024;-69
2022/03/19 10:17:04;;;;;;;21.50;7.20;;;;;;;17.66;39.58;104016.94;5094773;28;20016;-69
2022/03/19 10:19:29;;;;;;;21.60;7.50;;;;;;;17.68;39.75;104012.53;5094737;28;20149;-68
2022/03/19 10:22:06;;;;;;;22.05;6.82;;;;;;;17.71;39.11;103994.78;5093059;28;20033;-68
2022/03/19 10:24:36;;;;;;;22.38;7.05;;;;;;;17.34;38.67;104001.88;5087793;28;20027;-68
2022/03/19 10:27:01;;;;;;;21.10;6.40;;;;;;;17.43;37.61;104003.91;5087677;28;20027;-68
2022/03/19 10:29:30;;;;;;;21.05;6.50;;;;;;;17.72;35.04;103998.38;5094725;28;20434;-68
2022/03/19 10:32:07;;;;;;;21.05;6.35;;;;;;;18.42;34.77;103988.41;5094495;28;20118;-69
2022/03/19 10:34:34;;;;;;;18.98;5.78;;;;;;;18.61;32.88;103970.00;5087978;28;20054;-68
2022/03/19 10:36:59;;;;;;;19.90;5.95;;;;;;;18.71;33.10;103969.34;5094810;28;20089;-68
2022/03/19 10:39:27;;;;;;;19.88;6.00;;;;;;;19.09;32.38;103968.28;5094266;28;20044;-68
2022/03/19 10:41:56;;;;;;;19.70;6.07;;;;;;;19.25;31.63;103982.84;5094317;28;20102;-68
2022/03/19 10:44:26;;;;;;;19.20;5.93;;;;;;;19.48;31.35;103965.41;5094453;28;20360;-68
2022/03/19 10:46:55;;;;;;;19.95;5.70;;;;;;;19.13;29.93;103954.97;5094167;28;20393;-69
2022/03/19 10:49:23;;;;;;;20.45;5.75;;;;;;;19.25;30.86;103959.66;5094153;28;20039;-69
2022/03/19 10:51:51;;;;;;;18.83;5.40;;;;;;;19.10;29.89;103962.94;5093591;28;20024;-68
2022/03/19 10:54:17;;;;;;;19.90;5.38;;;;;;;18.92;29.49;103944.75;5094272;28;20103;-68
2022/03/19 10:56:44;;;;;;;19.33;5.93;;;;;;;19.25;29.54;103950.69;5094079;28;20039;-68
2022/03/19 10:59:10;;;;;;;19.20;5.25;;;;;;;19.49;28.00;103929.63;5093795;28;20056;-70
2022/03/19 11:01:37;;;;;;;18.23;5.18;;;;;;;19.23;28.18;103939.03;5093893;28;20063;-69
2022/03/19 11:04:05;;;;;;;17.85;4.80;;;;;;;19.72;28.04;103939.81;5093983;28;20081;-69
2022/03/19 11:06:42;;;;;;;20.05;5.20;;;;;;;20.63;26.06;103937.44;5089922;28;20028;-68
2022/03/19 11:09:14;;;;;;;17.75;4.78;;;;;;;20.79;23.82;103920.59;5088113;28;20086;-69
2022/03/19 11:11:49;;;;;;;15.48;4.30;;;;;;;20.12;25.61;103916.22;5094179;28;20375;-68
2022/03/19 11:14:22;;;;;;;17.38;4.70;;;;;;;20.63;25.50;103921.31;5093407;28;20475;-69
2022/03/19 11:17:23;;;;;;;19.02;5.00;;;;;;;21.53;23.93;103932.03;5093606;28;20475;-69
2022/03/19 11:19:40;;;;;;;18.70;4.78;;;;;;;21.77;23.18;103901.69;5088373;28;20028;-70